Tiempo atmosférico en la estación meteorológica de Jimena de la Frontera, Cádiz (50 m.)



Fecha
DESCASC
Temp. máxima en grados centígrados (hora)
DESCASC
Temp. mínima en grados centígrados (hora)
DESCASC
Temp. media en grados centígrados
DESCASC
Racha de viento máxima en m/sg (hora)
DESCASC
Velocidad máxima media en intervalos de 10 minutos(hora)
DESCASC
Precipitaciones diarias en mm
DESCASC
Precipitaciones de 00:00 a 06:00 en mm
DESCASC
Precipitaciones de 06:00 a 12:00 en mm
DESCASC
Precipitaciones de 12:00 a 18:00 en mm
DESCASC
Precipitaciones de 18:00 a 24:00 en mm
DESCASC
28-02-2021 15.5 (15:00) 12.3 (09:00) 13.9 13.89 (15:20) 7.78 (15:50) 0.6 0 0.6 0 0
27-02-2021 16 (16:50) 13.1 (07:10) 14.6 11.39 (15:20) 6.67 (14:50) 0 0 0 0 0
26-02-2021 15.3 (17:20) 13.6 (08:20) 14.5 12.78 (01:50) 6.67 (10:30) 0.6 0 0.6 0 0
25-02-2021 16 (14:30) 13.1 (00:00) 14.6 11.94 (04:30) 6.67 (03:20) 0 0 0 0 0
24-02-2021 16.8 (12:40) 13.4 (00:00) 15.1 17.5 (11:30) 9.17 (11:50) 0 0 0 0 0
23-02-2021 17.5 (12:10) 2.8 (00:00) 10.1 13.06 (16:50) 7.78 (12:40) 0 0 0 0 0
22-02-2021 17 (15:40) 4 (00:00) 10.5 7.5 (15:30) 4.44 (16:30) 0.2 0.2 0 0 0
21-02-2021 14.4 (00:10) 7.3 (00:00) 10.8 10.83 (00:10) 5.28 (00:10) 7.4 0 5.4 2 0
20-02-2021 17.4 (14:40) 8.7 (00:00) 13 10.28 (13:30) 6.39 (12:10) 0 0 0 0 0
19-02-2021 18.8 (14:40) 3.4 (00:00) 11.1 6.39 (17:00) 3.89 (17:00) 0 0 0 0 0
18-02-2021 22.2 (16:40) 6.4 (00:00) 14.3 4.44 (19:10) 2.5 (15:00) 0 0 0 0 0
17-02-2021 17.7 (15:00) 4.7 (00:00) 11.2 5.28 (15:10) 2.78 (14:40) 0 0 0 0 0
16-02-2021 17.6 (14:50) 6.8 (00:00) 12.2 8.61 (01:20) 5 (01:00) 0 0 0 0 0
15-02-2021 17.1 (13:10) 13.5 (00:00) 15.3 16.67 (14:40) 9.44 (14:40) 0 0 0 0 0
14-02-2021 20.4 (13:10) 2.2 (00:00) 11.3 15.28 (13:20) 9.72 (15:10) 0 0 0 0 0
13-02-2021 22.6 (15:30) 5.9 (00:00) 14.3 4.44 (05:20) 2.78 (06:20) 0 0 0 0 0
12-02-2021 20.3 (14:50) 8.1 (00:00) 14.2 12.5 (13:30) 6.67 (14:10) 0 0 0 0 0
11-02-2021 21 (15:10) 10.5 (00:00) 15.8 8.61 (14:10) 5 (14:00) 0 0 0 0 0
10-02-2021 16.3 (17:40) 13.6 (00:00) 14.9 14.72 (10:40) 7.5 (09:30) 8.2 4.2 2.6 1.4 0
09-02-2021 17.3 (11:50) 9 (00:00) 13.1 12.5 (23:10) 6.67 (12:20) 2.6 0 0.4 1 1.2
08-02-2021 17.4 (14:20) 11.5 (00:00) 14.4 15.83 (13:50) 7.78 (14:40) 14.2 4.8 9.4 0 0
07-02-2021 15.2 (12:40) 8 (00:00) 11.6 12.78 (15:10) 6.94 (15:10) 0.6 0.4 0 0 0.2
06-02-2021 14.7 (14:10) 7.8 (00:00) 11.3 8.89 (16:10) 5.28 (16:10) 7 4.6 0.6 1.6 0.2
05-02-2021 16.9 (12:30) 7.6 (00:00) 12.2 6.39 (18:00) 3.33 (18:20) 2.8 0 0 0 2.8
04-02-2021 18.8 (17:10) 7 (00:00) 12.9 5 (13:50) 2.5 (14:40) 0 0 0 0 0
03-02-2021 20.2 (14:50) 8.3 (00:00) 14.3 7.22 (15:00) 4.17 (15:00) 0 0 0 0 0
02-02-2021 21.4 (15:40) 9.7 (00:00) 15.5 8.33 (14:30) 5.56 (14:30) 0 0 0 0 0
01-02-2021 19.1 (14:10) 10.8 (00:00) 15 11.67 (13:00) 7.5 (13:10) 0.6 0.6 0 0 0
31-01-2021 18 (12:20) 11.9 (00:00) 14.9 11.67 (05:40) 6.39 (04:00) 0.6 0 0 0 0.6

Gráficas

Temp. máximas Temp. mínimas Temp. medias Precipitaciones Rachas de viento máximas Velocidades máximas media en intervalos de 10 minutos

Datos horarios

Fecha y hora oficial Temperatura (ºC) Velocidad del viento (km/h) Dirección del viento Racha (km/h) Dirección de racha Precipitación (mm) Presión (hPa) Tendencia (hPa) Humedad (%)
2021-03-01 23:00:00 -- -- -- -- -- -- -- -- --
2021-03-01 22:00:00 10.8 4 Nordeste 7 Nordeste 0 -- -- 91
2021-03-01 21:00:00 12.3 3 Nordeste 15 Sudeste 0 -- -- 87
2021-03-01 20:00:00 13.5 9 Sudeste 15 Sudeste 0 -- -- 83
2021-03-01 19:00:00 15.2 7 Sudeste 19 Este 0 -- -- 76
2021-03-01 18:00:00 16 10 Sudeste 20 Sudeste 0 -- -- 72
2021-03-01 17:00:00 16.1 4 Sur 14 Este 0 -- -- 73
2021-03-01 16:00:00 15.8 6 Sudeste 18 Este 0 -- -- 74
2021-03-01 15:00:00 15.7 8 Este 27 Sudeste 0 -- -- 76
2021-03-01 14:00:00 16.2 11 Este 26 Este 0 -- -- 75
2021-03-01 13:00:00 15.4 7 Este 21 Este 0 -- -- 78
2021-03-01 12:00:00 14.9 13 Sudeste 32 Sudeste 0 -- -- 79
2021-03-01 11:00:00 15.2 13 Sudeste 24 Este 0 -- -- 80
2021-03-01 10:00:00 13.9 11 Sudeste 21 Este 0 -- -- 85
2021-03-01 09:00:00 10.9 0 Calma 5 Noroeste 0 -- -- 98
2021-03-01 08:00:00 10.9 4 Noroeste 6 Noroeste 0 -- -- 97
2021-03-01 07:00:00 11.2 0 Calma 6 Oeste 0 -- -- 96
2021-03-01 06:00:00 11.5 2 Noroeste 7 Sudeste 0 -- -- 95
2021-03-01 05:00:00 12 7 Sudeste 13 Este 0 -- -- 91
2021-03-01 04:00:00 12 3 Sur 12 Sudeste 0.2 -- -- 94
2021-03-01 03:00:00 12.4 7 Sudeste 19 Este 0.2 -- -- 93
2021-03-01 02:00:00 12.5 9 Este 21 Este 0.4 -- -- 93
2021-03-01 01:00:00 12.6 13 Este 35 Este 0.4 -- -- 93
2021-03-01 00:00:00 13.2 21 Este 40 Este 0 -- -- 90
2021-02-28 23:00:00 14.2 23 Este 45 Este 0 -- -- 83
2021-02-28 22:00:00 14.3 14 Sudeste 38 Sudeste 0 -- -- 84
2021-02-28 21:00:00 13.9 14 Sudeste 32 Sudeste 0 -- -- 87
2021-02-28 20:00:00 14.1 11 Sudeste 28 Este 0 -- -- 84
2021-02-28 19:00:00 14.3 14 Sudeste 37 Este 0 -- -- 83
2021-02-28 18:00:00 14.6 17 Sudeste 44 Este 0 -- -- 82
2021-02-28 17:00:00 15.2 17 Este 50 Este 0 -- -- 79
2021-02-28 16:00:00 14.9 26 Este 50 Sudeste 0 -- -- 77
2021-02-28 15:00:00 15.5 21 Este 49 Este 0 -- -- 76
2021-02-28 14:00:00 14.3 19 Este 38 Este 0 -- -- 81
2021-02-28 13:00:00 13.4 15 Este 28 Nordeste 0 -- -- 84
2021-02-28 12:00:00 12.7 13 Este 32 Este 0 -- -- 89
2021-02-28 11:00:00 12.5 17 Este 34 Este 0.2 -- -- 92
2021-02-28 10:00:00 12.4 16 Este 41 Este 0.2 -- -- 94
2021-02-28 09:00:00 12.3 9 Este 29 Este 0.2 -- -- 94
2021-02-28 08:00:00 12.4 11 Este 29 Sudeste 0 -- -- 93
2021-02-28 07:00:00 13 12 Sudeste 31 Este 0 -- -- 86
2021-02-28 06:00:00 13.1 17 Sudeste 36 Sudeste 0 -- -- 85
2021-02-28 05:00:00 13.5 13 Este 31 Este 0 -- -- 77
2021-02-28 04:00:00 13.4 14 Este 29 Este 0 -- -- 83
2021-02-28 03:00:00 13.5 11 Este 26 Sudeste 0 -- -- 84
2021-02-28 02:00:00 13.7 12 Este 29 Sudeste 0 -- -- 82
2021-02-28 01:00:00 13.8 14 Sudeste 32 Este 0 -- -- 83
2021-02-28 00:00:00 13.9 17 Este 29 Este 0 -- -- 80
2021-02-27 23:00:00 13.8 9 Este 27 Este 0 -- -- 79
2021-02-27 22:00:00 14 12 Este 25 Este 0 -- -- 79
2021-02-27 21:00:00 13.7 11 Este 28 Este 0 -- -- 80
2021-02-27 20:00:00 13.5 6 Este 23 Sudeste 0 -- -- 82
2021-02-27 19:00:00 14 12 Sudeste 30 Sudeste 0 -- -- 78
2021-02-27 18:00:00 15.2 15 Sudeste 37 Sudeste 0 -- -- 72
2021-02-27 17:00:00 16 16 Este 37 Este 0 -- -- 70
2021-02-27 16:00:00 15.5 18 Este 41 Este 0 -- -- 70
2021-02-27 15:00:00 15.8 21 Este 40 Este 0 -- -- 70
2021-02-27 14:00:00 15.2 20 Sudeste 38 Este 0 -- -- 74
2021-02-27 13:00:00 14.8 12 Sudeste 27 Sudeste 0 -- -- 75
2021-02-27 12:00:00 14.6 12 Sudeste 31 Sudeste 0 -- -- 75
2021-02-27 11:00:00 14.7 19 Este 37 Sudeste 0 -- -- 75
2021-02-27 10:00:00 14.2 17 Sudeste 30 Sudeste 0 -- -- 79
2021-02-27 09:00:00 13.7 14 Este 25 Este 0 -- -- 79
2021-02-27 08:00:00 13.3 8 Este 21 Este 0 -- -- 84
2021-02-27 07:00:00 13.2 7 Este 17 Este 0 -- -- 85
2021-02-27 06:00:00 13.7 10 Este 21 Este 0 -- -- 83
2021-02-27 05:00:00 13.4 10 Sudeste 26 Este 0 -- -- 83
2021-02-27 04:00:00 13.8 13 Sudeste 28 Sudeste 0 -- -- 83
2021-02-27 03:00:00 13.8 11 Sudeste 37 Sudeste 0 -- -- 84
2021-02-27 02:00:00 14.1 14 Sudeste 37 Sudeste 0 -- -- 84
2021-02-27 01:00:00 14 15 Sudeste 36 Este 0 -- -- 85
2021-02-27 00:00:00 14 15 Este 28 Este 0 -- -- 86
2021-02-26 23:00:00 13.9 14 Este 26 Este 0 -- -- 84
2021-02-26 22:00:00 14 13 Este 28 Este 0 -- -- 83
2021-02-26 21:00:00 14 12 Sudeste 22 Sudeste 0 -- -- 81
2021-02-26 20:00:00 13.8 12 Sudeste 29 Este 0 -- -- 82
2021-02-26 19:00:00 14.2 14 Sudeste 34 Este 0 -- -- 81
2021-02-26 18:00:00 14.9 13 Este 33 Sudeste 0 -- -- 80
2021-02-26 17:00:00 15.2 12 Sudeste 30 Sudeste 0 -- -- 82
2021-02-26 16:00:00 14.9 21 Este 36 Este 0 -- -- 82
2021-02-26 15:00:00 14.9 16 Este 33 Este 0 -- -- 84
2021-02-26 14:00:00 14.4 17 Este 31 Este 0 -- -- 86
2021-02-26 13:00:00 14.2 14 Este 34 Este 0 -- -- 89
2021-02-26 12:00:00 14.4 16 Este 43 Este 0 -- -- 86
2021-02-26 11:00:00 14.4 23 Este 44 Este 0 -- -- 86
2021-02-26 10:00:00 14.2 18 Este 39 Sudeste 0 -- -- 89
2021-02-26 09:00:00 13.9 20 Este 40 Este 0.4 -- -- 91
2021-02-26 08:00:00 13.8 12 Sudeste 26 Este 0.2 -- -- 91
2021-02-26 07:00:00 14.3 6 Este 27 Este 0 -- -- 86
2021-02-26 06:00:00 14.2 14 Sudeste 30 Sudeste 0 -- -- 86
2021-02-26 05:00:00 14.3 15 Sudeste 27 Sudeste 0 -- -- 88
2021-02-26 04:00:00 14.1 11 Sudeste 31 Este 0 -- -- 88
2021-02-26 03:00:00 14.4 13 Sudeste 36 Sudeste 0 -- -- 85
2021-02-26 02:00:00 14.4 17 Sudeste 46 Este 0 -- -- 85
2021-02-26 01:00:00 14.6 18 Sudeste 41 Este 0 -- -- 84
2021-02-26 00:00:00 14.7 8 Sudeste 31 Este 0 -- -- 80
2021-02-25 23:00:00 14.9 11 Este 29 Este 0 -- -- 79
2021-02-25 22:00:00 14.4 13 Sudeste 33 Sudeste 0 -- -- 81
2021-02-25 21:00:00 14.4 12 Sudeste 22 Sudeste 0 -- -- 84
2021-02-25 20:00:00 14.3 10 Sudeste 28 Sudeste 0 -- -- 86
2021-02-25 19:00:00 14.5 13 Sudeste 29 Sudeste 0 -- -- 86
2021-02-25 18:00:00 15.1 12 Sudeste 30 Sudeste 0 -- -- 85
2021-02-25 17:00:00 15.5 20 Sudeste 36 Sudeste 0 -- -- 82
2021-02-25 16:00:00 15.3 21 Sudeste 33 Este 0 -- -- 83
2021-02-25 15:00:00 15.7 19 Sudeste 38 Este 0 -- -- 81
2021-02-25 14:00:00 15.3 23 Sudeste 37 Sudeste 0 -- -- 82
2021-02-25 13:00:00 15.4 19 Este 39 Este 0 -- -- 83
2021-02-25 12:00:00 15.2 21 Este 42 Este 0 -- -- 83
2021-02-25 11:00:00 15 20 Sudeste 40 Este 0 -- -- 85
2021-02-25 10:00:00 15.1 19 Este 36 Este 0 -- -- 83
2021-02-25 09:00:00 13.8 14 Sudeste 32 Este 0 -- -- 88
2021-02-25 08:00:00 13.1 16 Este 31 Este 0 -- -- 90
2021-02-25 07:00:00 13.2 13 Este 33 Este 0 -- -- 90
2021-02-25 06:00:00 13.3 15 Sudeste 35 Este 0 -- -- 90
2021-02-25 05:00:00 13.8 21 Sudeste 43 Sudeste 0 -- -- 85
2021-02-25 04:00:00 14.4 23 Sudeste 42 Este 0 -- -- 79
2021-02-25 03:00:00 14.4 23 Este 38 Este 0 -- -- 78
2021-02-25 02:00:00 14.5 19 Este 39 Este 0 -- -- 79
2021-02-25 01:00:00 14.4 19 Sudeste 40 Este 0 -- -- 83
2021-02-25 00:00:00 14.5 14 Sudeste 39 Sudeste 0 -- -- 82
2021-02-24 23:00:00 14.3 14 Sudeste 27 Este 0 -- -- 82
2021-02-24 22:00:00 14.1 16 Este 32 Este 0 -- -- 81
2021-02-24 21:00:00 14.1 10 Sudeste 37 Este 0 -- -- 78
2021-02-24 20:00:00 14.5 20 Este 42 Este 0 -- -- 75
2021-02-24 19:00:00 14.9 23 Sudeste 45 Sudeste 0 -- -- 76
2021-02-24 18:00:00 15.6 19 Sudeste 42 Este 0 -- -- 75
2021-02-24 17:00:00 15.8 29 Sudeste 54 Sudeste 0 -- -- 78
2021-02-24 16:00:00 16.3 26 Este 51 Este 0 -- -- 78
2021-02-24 15:00:00 16.1 24 Este 50 Sudeste 0 -- -- 79
2021-02-24 14:00:00 16.2 27 Este 54 Este 0 -- -- 77
2021-02-24 13:00:00 16.6 22 Este 54 Este 0 -- -- 76
2021-02-24 12:00:00 16 32 Este 63 Este 0 -- -- 77
2021-02-24 11:00:00 15.9 27 Este 55 Este 0 -- -- 77
2021-02-24 10:00:00 14.9 24 Este 44 Este 0 -- -- 78
2021-02-24 09:00:00 14.3 16 Este 42 Sudeste 0 -- -- 80
2021-02-24 08:00:00 14 19 Este 46 Este 0 -- -- 81
2021-02-24 07:00:00 14.4 23 Este 52 Este 0 -- -- 81
2021-02-24 06:00:00 14.4 24 Este 44 Este 0 -- -- 82
2021-02-24 05:00:00 14.3 22 Este 51 Este 0 -- -- 82
2021-02-24 04:00:00 14.3 21 Este 50 Este 0 -- -- 83
2021-02-24 03:00:00 14.1 19 Este 42 Sudeste 0 -- -- 80
2021-02-24 02:00:00 13.5 15 Este 35 Sudeste 0 -- -- 79
2021-02-24 01:00:00 13.4 14 Este 32 Este 0 -- -- 81
2021-02-24 00:00:00 13.7 17 Este 34 Sudeste 0 -- -- 79
2021-02-23 23:00:00 13.4 11 Este 35 Este 0 -- -- 79
2021-02-23 22:00:00 13 16 Este 33 Este 0 -- -- 77
2021-02-23 21:00:00 12.9 8 Sudeste 26 Este 0 -- -- 78
2021-02-23 20:00:00 13.3 11 Este 23 Este 0 -- -- 77
2021-02-23 19:00:00 14.3 13 Este 39 Este 0 -- -- 71
2021-02-23 18:00:00 15.4 14 Este 42 Este 0 -- -- 64
2021-02-23 17:00:00 16.3 25 Este 47 Este 0 -- -- 65
2021-02-23 16:00:00 16.9 23 Este 44 Este 0 -- -- 59
2021-02-23 15:00:00 16.8 25 Este 44 Este 0 -- -- 59
2021-02-23 14:00:00 17.1 25 Sudeste 46 Este 0 -- -- 53
2021-02-23 13:00:00 17.4 24 Este 47 Este 0 -- -- 46
2021-02-23 12:00:00 17.3 21 Este 39 Este 0 -- -- 45
2021-02-23 11:00:00 13.1 2 Noroeste 5 Noroeste 0 -- -- 76
2021-02-23 10:00:00 9.3 0 Calma 4 Oeste 0 -- -- 92
2021-02-23 09:00:00 5 0 Calma 8 Nordeste 0 -- -- 100
2021-02-23 08:00:00 3.2 4 Nordeste 9 Nordeste 0 -- -- 98
2021-02-23 07:00:00 2.8 6 Nordeste 9 Nordeste 0 -- -- 98
2021-02-23 06:00:00 3.4 4 Este 8 Nordeste 0 -- -- 97
2021-02-23 05:00:00 4.1 4 Este 7 Este 0 -- -- 97
2021-02-23 04:00:00 4.2 3 Norte 9 Norte 0 -- -- 97
2021-02-23 03:00:00 4.7 2 Nordeste 6 Norte 0 -- -- 96
2021-02-23 02:00:00 5.6 0 Calma 7 Nordeste 0 -- -- 97
2021-02-23 01:00:00 6.2 3 Noroeste 7 Nordeste 0 -- -- 96
2021-02-23 00:00:00 6.3 4 Norte 8 Nordeste 0 -- -- 95
2021-02-22 23:00:00 6.1 5 Nordeste 8 Nordeste 0 -- -- 94
2021-02-22 22:00:00 7.3 3 Este 10 Este 0 -- -- 93
2021-02-22 21:00:00 8.1 4 Este 8 Nordeste 0 -- -- 88
2021-02-22 20:00:00 11.1 0 Calma 11 Oeste 0 -- -- 78
2021-02-22 19:00:00 13.8 4 Noroeste 15 Oeste 0 -- -- 70
2021-02-22 18:00:00 15.5 10 Noroeste 24 Oeste 0 -- -- 61
2021-02-22 17:00:00 16 14 Oeste 27 Noroeste 0 -- -- 59
2021-02-22 16:00:00 16.3 14 Noroeste 27 Noroeste 0 -- -- 58
2021-02-22 15:00:00 16.4 12 Noroeste 27 Noroeste 0 -- -- 53
2021-02-22 14:00:00 16.2 14 Oeste 26 Oeste 0 -- -- 56
2021-02-22 13:00:00 16.3 12 Noroeste 27 Oeste 0 -- -- 56
2021-02-22 12:00:00 15.4 12 Noroeste 21 Oeste 0 -- -- 58
2021-02-22 11:00:00 13.2 3 Sudeste 7 Sudeste 0 -- -- 76
2021-02-22 10:00:00 9.7 3 Este 5 Este 0 -- -- 87
2021-02-22 09:00:00 5.6 3 Este 5 Este 0 -- -- 100
2021-02-22 08:00:00 4.1 0 Calma 5 Sur 0 -- -- 98
2021-02-22 07:00:00 4.6 4 Noroeste 9 Norte 0 -- -- 98
2021-02-22 06:00:00 5 3 Noroeste 8 Oeste 0 -- -- 97
2021-02-22 05:00:00 5.6 4 Norte 12 Nordeste 0 -- -- 96
2021-02-22 04:00:00 6 5 Nordeste 10 Nordeste 0.2 -- -- 95
2021-02-22 03:00:00 7.5 3 Nordeste 12 Norte 0 -- -- 90
2021-02-22 02:00:00 8.2 7 Norte 19 Noroeste 0 -- -- 94
2021-02-22 01:00:00 6.6 3 Norte 7 Norte 0 -- -- 94
2021-02-22 00:00:00 7.3 4 Noroeste 12 Noroeste 0 -- -- 91
2021-02-21 23:00:00 8.4 3 Noroeste 9 Noroeste 0 -- -- 89
2021-02-21 22:00:00 10.1 4 Noroeste 18 Oeste 0 -- -- 88
2021-02-21 21:00:00 9.1 8 Oeste 16 Oeste 0 -- -- 94
2021-02-21 20:00:00 9.7 5 Oeste 12 Noroeste 0 -- -- 86
2021-02-21 19:00:00 11.4 7 Noroeste 19 Noroeste 0 -- -- 79
2021-02-21 18:00:00 12.8 7 Noroeste 35 Noroeste 0 -- -- 76
2021-02-21 17:00:00 12.2 16 Noroeste 33 Oeste 0 -- -- 80
2021-02-21 16:00:00 12.1 16 Oeste 36 Oeste 0 -- -- 84
2021-02-21 15:00:00 13 11 Oeste 22 Oeste 0 -- -- 86
2021-02-21 14:00:00 12.2 4 Oeste 10 Oeste 0.6 -- -- 93
2021-02-21 13:00:00 12.1 4 Sur 15 Sudeste 1.4 -- -- 94
2021-02-21 12:00:00 11.7 8 Sudoeste 26 Sudoeste 1.2 -- -- 92
2021-02-21 11:00:00 12.2 0 Calma 11 Nordeste 0.6 -- -- 98
2021-02-21 10:00:00 11.3 8 Este 12 Nordeste 3.6 -- -- 97
2021-02-21 09:00:00 10.9 3 Norte 5 Sur 0 -- -- 95
2021-02-21 08:00:00 10.4 3 Norte 15 Oeste 0 -- -- 96
2021-02-21 07:00:00 10.3 5 Este 11 Este 0 -- -- 95
2021-02-21 06:00:00 10.9 3 Sudeste 5 Este 0 -- -- 93
2021-02-21 05:00:00 11.1 2 Este 6 Nordeste 0 -- -- 93
2021-02-21 04:00:00 11 0 Calma 6 Noroeste 0 -- -- 91
2021-02-21 03:00:00 11.3 2 Nordeste 5 Sudeste 0 -- -- 90
2021-02-21 02:00:00 12.2 5 Noroeste 20 Sudeste 0 -- -- 86
2021-02-21 01:00:00 14.4 12 Sudeste 39 Este 0 -- -- 78
2021-02-21 00:00:00 14.3 20 Sudeste 36 Sudeste 0 -- -- 79
2021-02-20 23:00:00 14 12 Sudeste 28 Este 0 -- -- 79
2021-02-20 22:00:00 13.8 9 Sudeste 24 Sudeste 0 -- -- 79
2021-02-20 21:00:00 13.3 7 Sudeste 18 Sudeste 0 -- -- 83
2021-02-20 20:00:00 13.6 8 Sudeste 18 Sudeste 0 -- -- 82
2021-02-20 19:00:00 14.5 8 Sudeste 27 Sur 0 -- -- 81
2021-02-20 18:00:00 15.2 13 Sudeste 30 Sudeste 0 -- -- 78
2021-02-20 17:00:00 15.8 14 Sudeste 29 Sudeste 0 -- -- 77
2021-02-20 16:00:00 16.8 17 Sudeste 31 Sudeste 0 -- -- 71
2021-02-20 15:00:00 17.2 19 Sudeste 34 Sudeste 0 -- -- 69
2021-02-20 14:00:00 16.4 16 Sudeste 37 Sudeste 0 -- -- 71
2021-02-20 13:00:00 16.3 15 Sudeste 35 Sudeste 0 -- -- 76
2021-02-20 12:00:00 16.5 18 Sudeste 33 Sudeste 0 -- -- 73
2021-02-20 11:00:00 15.5 16 Sudeste 29 Sudeste 0 -- -- 77
2021-02-20 10:00:00 12 2 Oeste 4 Noroeste 0 -- -- 98
2021-02-20 09:00:00 9.9 0 Calma 8 Este 0 -- -- 99
2021-02-20 08:00:00 8.8 2 Nordeste 9 Este 0 -- -- 97
2021-02-20 07:00:00 9.5 3 Nordeste 6 Sudeste 0 -- -- 96
2021-02-20 06:00:00 11 0 Calma 8 Este 0 -- -- 96
2021-02-20 05:00:00 10.9 0 Calma 6 Este 0 -- -- 96
2021-02-20 04:00:00 10.8 5 Este 8 Noroeste 0 -- -- 95
2021-02-20 03:00:00 10.9 3 Noroeste 5 Noroeste 0 -- -- 94
2021-02-20 02:00:00 11.4 2 Norte 8 Norte 0 -- -- 92
2021-02-20 01:00:00 12.2 2 Noroeste 6 Este 0 -- -- 93
2021-02-20 00:00:00 13 0 Calma 4 Este 0 -- -- 92
2021-02-19 23:00:00 13.2 2 Nordeste 5 Sudeste 0 -- -- 91
2021-02-19 22:00:00 13.2 3 Sudeste 10 Este 0 -- -- 91
2021-02-19 21:00:00 12.7 4 Este 7 Sudeste 0 -- -- 91
2021-02-19 20:00:00 13.5 3 Este 9 Este 0 -- -- 89
2021-02-19 19:00:00 14.3 4 Sudeste 17 Sudeste 0 -- -- 86
2021-02-19 18:00:00 15.6 10 Sudeste 20 Sudeste 0 -- -- 81
2021-02-19 17:00:00 17.3 14 Sudeste 23 Sudeste 0 -- -- 73
2021-02-19 16:00:00 18.4 11 Sudeste 19 Sudeste 0 -- -- 69
2021-02-19 15:00:00 18.7 10 Sudeste 20 Sudeste 0 -- -- 69
2021-02-19 14:00:00 18.4 5 Oeste 9 Noroeste 0 -- -- 76
2021-02-19 13:00:00 16 5 Noroeste 10 Noroeste 0 -- -- 82
2021-02-19 12:00:00 12.4 0 Calma 5 Noroeste 0 -- -- 95
2021-02-19 11:00:00 9.6 0 Calma 2 Sudoeste 0 -- -- 98
2021-02-19 10:00:00 7.5 0 Calma 4 Noroeste 0 -- -- 100
2021-02-19 09:00:00 5.5 0 Calma 5 Noroeste 0 -- -- 100
2021-02-19 08:00:00 3.8 0 Calma 5 Norte 0 -- -- 99
2021-02-19 07:00:00 3.5 3 Nordeste 4 Nordeste 0 -- -- 98
2021-02-19 06:00:00 3.8 3 Nordeste 5 Nordeste 0 -- -- 97
2021-02-19 05:00:00 4.6 0 Calma 5 Sudeste 0 -- -- 98
2021-02-19 04:00:00 5.5 3 Nordeste 5 Nordeste 0 -- -- 98
2021-02-19 03:00:00 5.7 4 Nordeste 6 Nordeste 0 -- -- 97
2021-02-19 02:00:00 6.1 5 Nordeste 7 Nordeste 0 -- -- 96
2021-02-19 01:00:00 6.7 2 Nordeste 7 Nordeste 0 -- -- 95
2021-02-19 00:00:00 7.5 4 Nordeste 9 Nordeste 0 -- -- 94
2021-02-18 23:00:00 8.4 4 Nordeste 8 Este 0 -- -- 93
2021-02-18 22:00:00 9.9 5 Nordeste 9 Este 0 -- -- 92
2021-02-18 21:00:00 11.7 5 Nordeste 10 Nordeste 0 -- -- 90
2021-02-18 20:00:00 14.5 4 Este 16 Sudoeste 0 -- -- 82
2021-02-18 19:00:00 18.6 4 Sudoeste 14 Sudoeste 0 -- -- 67
2021-02-18 18:00:00 21.1 7 Sudoeste 14 Sudoeste 0 -- -- 63
2021-02-18 17:00:00 22.2 6 Oeste 12 Oeste 0 -- -- 61
2021-02-18 16:00:00 21.9 6 Oeste 13 Oeste 0 -- -- 61
2021-02-18 15:00:00 20.5 9 Sudeste 14 Este 0 -- -- 60
2021-02-18 14:00:00 19.6 6 Sudeste 12 Sudeste 0 -- -- 66
2021-02-18 13:00:00 17.7 3 Sudeste 9 Sudeste 0 -- -- 70
2021-02-18 12:00:00 15 4 Sudoeste 10 Sudoeste 0 -- -- 78
2021-02-18 11:00:00 12.4 0 Calma 10 Oeste 0 -- -- 88
2021-02-18 10:00:00 10.6 4 Oeste 6 Noroeste 0 -- -- 94
2021-02-18 09:00:00 8.9 3 Noroeste 6 Noroeste 0 -- -- 97
2021-02-18 08:00:00 9.5 0 Calma 8 Noroeste 0 -- -- 98
2021-02-18 07:00:00 9.7 4 Noroeste 6 Noroeste 0 -- -- 99
2021-02-18 06:00:00 9.6 0 Calma 3 Sudeste 0 -- -- 99
2021-02-18 05:00:00 9.3 0 Calma 2 Noroeste 0 -- -- 99
2021-02-18 04:00:00 8.9 0 Calma 2 Noroeste 0 -- -- 99
2021-02-18 03:00:00 8.2 0 Calma 2 Sudeste 0 -- -- 99
2021-02-18 02:00:00 7.2 0 Calma 4 Nordeste 0 -- -- 98
2021-02-18 01:00:00 6.7 2 Nordeste 4 Nordeste 0 -- -- 97
2021-02-18 00:00:00 7.2 4 Nordeste 5 Nordeste 0 -- -- 96
2021-02-17 23:00:00 8 3 Nordeste 6 Nordeste 0 -- -- 96
2021-02-17 22:00:00 8.6 5 Nordeste 6 Nordeste 0 -- -- 94
2021-02-17 21:00:00 10 5 Nordeste 8 Nordeste 0 -- -- 92
2021-02-17 20:00:00 12.4 2 Este 6 Este 0 -- -- 87
2021-02-17 19:00:00 14.8 2 Sudeste 11 Sur 0 -- -- 81
2021-02-17 18:00:00 16.5 7 Sudeste 16 Sudeste 0 -- -- 76
2021-02-17 17:00:00 17.4 8 Sudeste 16 Sudeste 0 -- -- 73
2021-02-17 16:00:00 17.5 8 Sudeste 19 Sudeste 0 -- -- 73
2021-02-17 15:00:00 17.7 8 Sudeste 17 Sur 0 -- -- 72
2021-02-17 14:00:00 17 7 Sur 15 Sudeste 0 -- -- 73
2021-02-17 13:00:00 14.7 3 Noroeste 7 Sudeste 0 -- -- 82
2021-02-17 12:00:00 13.4 4 Noroeste 11 Norte 0 -- -- 86
2021-02-17 11:00:00 11.7 4 Noroeste 9 Noroeste 0 -- -- 92
2021-02-17 10:00:00 9.9 4 Noroeste 6 Noroeste 0 -- -- 97
2021-02-17 09:00:00 8.7 0 Calma 4 Noroeste 0 -- -- 99
2021-02-17 08:00:00 7.9 0 Calma 2 Noroeste 0 -- -- 99
2021-02-17 07:00:00 7.3 0 Calma 4 Noroeste 0 -- -- 99
2021-02-17 06:00:00 6.5 2 Norte 8 Nordeste 0 -- -- 99
2021-02-17 05:00:00 4.7 -- -- -- -- 0 -- -- 98
2021-02-17 04:00:00 5.2 0 Calma 4 Este 0 -- -- 98
2021-02-17 03:00:00 5.1 4 Este 5 Este 0 -- -- 97
2021-02-17 02:00:00 5.7 3 Nordeste 4 Este 0 -- -- 97
2021-02-17 01:00:00 6.4 0 Calma 4 Norte 0 -- -- 96
2021-02-17 00:00:00 7.1 4 Nordeste 6 Nordeste 0 -- -- 96
2021-02-16 23:00:00 7.7 3 Nordeste 6 Norte 0 -- -- 94
2021-02-16 22:00:00 8.7 2 Nordeste 7 Nordeste 0 -- -- 92
2021-02-16 21:00:00 9.7 4 Nordeste 8 Nordeste 0 -- -- 91
2021-02-16 20:00:00 11.4 4 Este 6 Sudeste 0 -- -- 87
2021-02-16 19:00:00 14 5 Sudeste 14 Sudeste 0 -- -- 79
2021-02-16 18:00:00 15.7 11 Sudeste 19 Sudeste 0 -- -- 72
2021-02-16 17:00:00 16.5 11 Sudeste 24 Sudeste 0 -- -- 69
2021-02-16 16:00:00 17.2 10 Sudeste 25 Sudeste 0 -- -- 67
2021-02-16 15:00:00 17.4 11 Sudeste 25 Sudeste 0 -- -- 66
2021-02-16 14:00:00 17 15 Sudeste 30 Sudeste 0 -- -- 66
2021-02-16 13:00:00 16.7 14 Sudeste 26 Sudeste 0 -- -- 67
2021-02-16 12:00:00 15.9 14 Este 30 Este 0 -- -- 68
2021-02-16 11:00:00 12.8 2 Oeste 4 Oeste 0 -- -- 85
2021-02-16 10:00:00 10.1 0 Calma 4 Oeste 0 -- -- 89
2021-02-16 09:00:00 8.8 0 Calma 6 Noroeste 0 -- -- 91
2021-02-16 08:00:00 8.2 4 Noroeste 8 Noroeste 0 -- -- 92
2021-02-16 07:00:00 7.6 3 Norte 6 Noroeste 0 -- -- 92
2021-02-16 06:00:00 7.1 3 Noroeste 8 Norte 0 -- -- 91
2021-02-16 05:00:00 6.9 4 Norte 11 Este 0 -- -- 89
2021-02-16 04:00:00 11.9 6 Sudeste 22 Sudeste 0 -- -- 77
2021-02-16 03:00:00 12.7 10 Sudeste 30 Sudeste 0 -- -- 74
2021-02-16 02:00:00 13 13 Sudeste 31 Sudeste 0 -- -- 73
2021-02-16 01:00:00 13.4 18 Sudeste 30 Este 0 -- -- 68
2021-02-16 00:00:00 13.5 18 Sudeste 32 Sudeste 0 -- -- 66
2021-02-15 23:00:00 13.7 18 Sudeste 33 Sudeste 0 -- -- 62
2021-02-15 22:00:00 13.6 12 Sudeste 34 Sudeste 0 -- -- 64
2021-02-15 21:00:00 13.9 18 Sudeste 35 Sudeste 0 -- -- 65
2021-02-15 20:00:00 13.8 17 Sudeste 39 Este 0 -- -- 72
2021-02-15 19:00:00 14.2 13 Sudeste 40 Sudeste 0 -- -- 71
2021-02-15 18:00:00 15.5 18 Sudeste 41 Este 0 -- -- 66
2021-02-15 17:00:00 15.9 26 Sudeste 44 Sudeste 0 -- -- 69
2021-02-15 16:00:00 16.6 22 Sudeste 51 Sudeste 0 -- -- 66
2021-02-15 15:00:00 16.5 30 Sudeste 60 Este 0 -- -- 65
2021-02-15 14:00:00 17 25 Sudeste 51 Este 0 -- -- 67
2021-02-15 13:00:00 16.8 26 Sudeste 51 Este 0 -- -- 66
2021-02-15 12:00:00 16.1 32 Sudeste 55 Este 0 -- -- 66
2021-02-15 11:00:00 15.9 28 Sudeste 48 Este 0 -- -- 70
2021-02-15 10:00:00 15.1 26 Sudeste 52 Sudeste 0 -- -- 72
2021-02-15 09:00:00 13.9 16 Sudeste 37 Sudeste 0 -- -- 76
2021-02-15 08:00:00 13.8 19 Este 36 Este 0 -- -- 77
2021-02-15 07:00:00 13.5 19 Sudeste 40 Este 0 -- -- 79
2021-02-15 06:00:00 13.7 17 Este 42 Sudeste 0 -- -- 80
2021-02-15 05:00:00 13.6 19 Este 36 Sudeste 0 -- -- 79
2021-02-15 04:00:00 13.8 18 Sudeste 42 Este 0 -- -- 78
2021-02-15 03:00:00 13.8 22 Sudeste 49 Sudeste 0 -- -- 78
2021-02-15 02:00:00 14.2 24 Sudeste 43 Sudeste 0 -- -- 73
2021-02-15 01:00:00 14.4 19 Sudeste 39 Sudeste 0 -- -- 67
2021-02-15 00:00:00 14.6 17 Sudeste 38 Sudeste 0 -- -- 62
2021-02-14 23:00:00 14.7 17 Sudeste 38 Sudeste 0 -- -- 59
2021-02-14 22:00:00 14.8 18 Sudeste 39 Sudeste 0 -- -- 62
2021-02-14 21:00:00 14.9 21 Sudeste 43 Sudeste 0 -- -- 65
2021-02-14 20:00:00 15.4 24 Sudeste 44 Este 0 -- -- 61
2021-02-14 19:00:00 15.6 22 Sudeste 40 Este 0 -- -- 62
2021-02-14 18:00:00 17 20 Sudeste 38 Sudeste 0 -- -- 58
2021-02-14 17:00:00 17.9 25 Sudeste 51 Este 0 -- -- 55
2021-02-14 16:00:00 19 27 Sudeste 52 Este 0 -- -- 52
2021-02-14 15:00:00 19.8 33 Sudeste 53 Este 0 -- -- 43
2021-02-14 14:00:00 20.3 27 Este 55 Este 0 -- -- 42
2021-02-14 13:00:00 20 22 Sudeste 39 Este 0 -- -- 47
2021-02-14 12:00:00 16.3 3 Norte 8 Noroeste 0 -- -- 68
2021-02-14 11:00:00 12.5 0 Calma 7 Sudeste 0 -- -- 74
2021-02-14 10:00:00 8.2 0 Calma 3 Sudeste 0 -- -- 86
2021-02-14 09:00:00 3.5 2 Nordeste 5 Nordeste 0 -- -- 99
2021-02-14 08:00:00 2.3 3 Nordeste 5 Este 0 -- -- 97
2021-02-14 07:00:00 2.5 2 Este 5 Nordeste 0 -- -- 96
2021-02-14 06:00:00 2.9 2 Nordeste 6 Nordeste 0 -- -- 96
2021-02-14 05:00:00 3.2 4 Nordeste 6 Nordeste 0 -- -- 95
2021-02-14 04:00:00 3.6 3 Norte 8 Nordeste 0 -- -- 94
2021-02-14 03:00:00 3.9 4 Este 8 Sudeste 0 -- -- 92
2021-02-14 02:00:00 4.6 3 Norte 10 Este 0 -- -- 94
2021-02-14 01:00:00 5.1 7 Este 10 Nordeste 0 -- -- 92
2021-02-14 00:00:00 5.9 8 Nordeste 9 Este 0 -- -- 93
2021-02-13 23:00:00 7.3 5 Nordeste 9 Nordeste 0 -- -- 91
2021-02-13 22:00:00 8.7 6 Nordeste 10 Nordeste 0 -- -- 90
2021-02-13 21:00:00 10.3 6 Este 8 Nordeste 0 -- -- 89
2021-02-13 20:00:00 13.4 4 Este 8 Nordeste 0 -- -- 81
2021-02-13 19:00:00 17.6 4 Este 6 Este 0 -- -- 69
2021-02-13 18:00:00 21.6 2 Sudoeste 7 Sur 0 -- -- 47
2021-02-13 17:00:00 21.7 3 Sudeste 10 Sudeste 0 -- -- 45
2021-02-13 16:00:00 22.1 6 Sudeste 12 Sudeste 0 -- -- 48
2021-02-13 15:00:00 22.3 4 Sudoeste 8 Sudeste 0 -- -- 42
2021-02-13 14:00:00 21.1 4 Sudeste 13 Sudeste 0 -- -- 44
2021-02-13 13:00:00 20.3 4 Sudoeste 10 Sudeste 0 -- -- 46
2021-02-13 08:00:00 -- -- -- -- -- -- -- -- --
2021-02-13 07:00:00 6.6 6 Nordeste 13 Nordeste 0 -- -- 91
2021-02-13 06:00:00 6.5 7 Nordeste 16 Norte 0 -- -- 94
2021-02-13 05:00:00 6.8 3 Nordeste 9 Noroeste 0 -- -- 94
2021-02-13 04:00:00 6.8 7 Este 10 Este 0 -- -- 94
2021-02-13 03:00:00 6.5 4 Este 10 Este 0 -- -- 95
2021-02-13 02:00:00 6.9 4 Nordeste 9 Este 0 -- -- 95
2021-02-13 01:00:00 7.6 2 Nordeste 8 Este 0 -- -- 92
2021-02-13 00:00:00 8.1 5 Nordeste 11 Nordeste 0 -- -- 91
2021-02-12 23:00:00 9 4 Nordeste 10 Nordeste 0 -- -- 89
2021-02-12 22:00:00 10.6 3 Norte 8 Noroeste 0 -- -- 86
2021-02-12 21:00:00 13 2 Nordeste 7 Nordeste 0 -- -- 77
2021-02-12 20:00:00 14 2 Sur 10 Oeste 0 -- -- 76
2021-02-12 19:00:00 16.6 3 Noroeste 29 Noroeste 0 -- -- 66
2021-02-12 18:00:00 18.6 13 Noroeste 30 Oeste 0 -- -- 60
2021-02-12 17:00:00 19.5 19 Noroeste 34 Noroeste 0 -- -- 57
2021-02-12 16:00:00 20.3 17 Noroeste 33 Noroeste 0 -- -- 53
2021-02-12 15:00:00 20 19 Noroeste 40 Noroeste 0 -- -- 54
2021-02-12 14:00:00 19.7 22 Noroeste 45 Noroeste 0 -- -- 53
2021-02-12 13:00:00 19.1 24 Noroeste 39 Noroeste 0 -- -- 62
2021-02-12 12:00:00 19.5 18 Noroeste 30 Noroeste 0 -- -- 67
2021-02-12 11:00:00 18.5 14 Noroeste 25 Oeste 0 -- -- 79
2021-02-12 10:00:00 16.6 14 Oeste 24 Oeste 0 -- -- 86
2021-02-12 09:00:00 14.6 11 Oeste 17 Oeste 0 -- -- 94
2021-02-12 08:00:00 13.1 2 Noroeste 9 Oeste 0 -- -- 92
2021-02-12 07:00:00 14.5 2 Noroeste 15 Oeste 0 -- -- 90
2021-02-12 06:00:00 14.6 8 Oeste 19 Oeste 0 -- -- 91
2021-02-12 05:00:00 14.8 5 Noroeste 11 Noroeste 0 -- -- 88
2021-02-12 04:00:00 15.2 9 Noroeste 22 Noroeste 0 -- -- 85
2021-02-12 03:00:00 14.8 10 Noroeste 34 Noroeste 0 -- -- 85
2021-02-12 02:00:00 13.4 4 Noroeste 22 Norte 0 -- -- 90
2021-02-12 01:00:00 13.1 5 Noroeste 10 Noroeste 0 -- -- 92
2021-02-12 00:00:00 13.3 5 Norte 20 Oeste 0 -- -- 89
2021-02-11 23:00:00 13.9 9 Noroeste 17 Noroeste 0 -- -- 89
2021-02-11 22:00:00 14.4 6 Noroeste 15 Oeste 0 -- -- 87
2021-02-11 21:00:00 15.4 5 Noroeste 21 Noroeste 0 -- -- 83
2021-02-11 20:00:00 15.8 7 Noroeste 17 Noroeste 0 -- -- 84
2021-02-11 19:00:00 17.5 6 Noroeste 20 Noroeste 0 -- -- 76
2021-02-11 18:00:00 19 13 Noroeste 28 Noroeste 0 -- -- 70
2021-02-11 17:00:00 20.6 13 Noroeste 28 Noroeste 0 -- -- 67
2021-02-11 16:00:00 20.7 13 Noroeste 29 Oeste 0 -- -- 71
2021-02-11 15:00:00 20.9 14 Noroeste 31 Oeste 0 -- -- 67
2021-02-11 14:00:00 20.3 18 Oeste 29 Oeste 0 -- -- 71
2021-02-11 13:00:00 20.2 15 Oeste 24 Oeste 0 -- -- 73
2021-02-11 12:00:00 19 11 Oeste 26 Oeste 0 -- -- 76
2021-02-11 11:00:00 17.4 15 Oeste 27 Oeste 0 -- -- 82
2021-02-11 10:00:00 15.1 3 Sudoeste 8 Nordeste 0 -- -- 95
2021-02-11 09:00:00 11 3 Este 6 Este 0 -- -- 99
2021-02-11 08:00:00 10.9 2 Sudeste 5 Este 0 -- -- 98
2021-02-11 07:00:00 11.9 4 Este 9 Nordeste 0 -- -- 99
2021-02-11 06:00:00 11.8 5 Este 8 Este 0 -- -- 97
2021-02-11 05:00:00 13.2 0 Calma 10 Noroeste 0 -- -- 97
2021-02-11 04:00:00 13.3 5 Noroeste 7 Noroeste 0 -- -- 96
2021-02-11 03:00:00 14.3 0 Calma 12 Oeste 0 -- -- 93
2021-02-11 02:00:00 14.9 7 Noroeste 16 Oeste 0 -- -- 92
2021-02-11 01:00:00 15.1 9 Oeste 20 Oeste 0 -- -- 91
2021-02-11 00:00:00 15.3 13 Oeste 23 Oeste 0 -- -- 89
2021-02-10 23:00:00 14.9 8 Oeste 14 Oeste 0 -- -- 88
2021-02-10 22:00:00 15.2 9 Oeste 23 Noroeste 0 -- -- 86
2021-02-10 21:00:00 15.2 13 Noroeste 25 Noroeste 0 -- -- 87
2021-02-10 20:00:00 15.3 4 Noroeste 24 Oeste 0 -- -- 90
2021-02-10 19:00:00 15.2 12 Noroeste 26 Oeste 0 -- -- 91
2021-02-10 18:00:00 16.1 12 Oeste 28 Oeste 0 -- -- 90
2021-02-10 17:00:00 15.8 12 Oeste 30 Oeste 0.2 -- -- 92
2021-02-10 16:00:00 16.1 11 Oeste 39 Oeste 0 -- -- 91
2021-02-10 15:00:00 15.9 21 Oeste 36 Oeste 0.2 -- -- 91
2021-02-10 14:00:00 15.9 16 Oeste 36 Oeste 0.6 -- -- 93
2021-02-10 13:00:00 15.9 19 Oeste 37 Oeste 0.4 -- -- 93
2021-02-10 12:00:00 15.5 21 Oeste 41 Oeste 1.4 -- -- 94
2021-02-10 11:00:00 15.6 21 Oeste 53 Oeste 0 -- -- 89
2021-02-10 10:00:00 15.2 22 Oeste 43 Oeste 0.2 -- -- 89
2021-02-10 09:00:00 15.2 24 Oeste 49 Oeste 0 -- -- 89
2021-02-10 08:00:00 15.1 19 Oeste 51 Oeste 0.2 -- -- 91
2021-02-10 07:00:00 14.8 19 Oeste 41 Noroeste 0.8 -- -- 94
2021-02-10 06:00:00 14.5 19 Oeste 39 Noroeste 1.2 -- -- 93
2021-02-10 05:00:00 14 9 Oeste 30 Noroeste 1.6 -- -- 96
2021-02-10 04:00:00 13.7 10 Noroeste 27 Oeste 0.2 -- -- 92
2021-02-10 03:00:00 13.6 13 Oeste 36 Oeste 0.4 -- -- 89
2021-02-10 02:00:00 14.7 16 Oeste 34 Noroeste 0.6 -- -- 92
2021-02-10 01:00:00 15 17 Oeste 33 Oeste 0.2 -- -- 88
2021-02-10 00:00:00 15 14 Oeste 45 Oeste 0.2 -- -- 87
2021-02-09 23:00:00 15.5 20 Oeste 37 Sudoeste 0 -- -- 86
2021-02-09 22:00:00 14.6 14 Oeste 37 Noroeste 0.4 -- -- 90
2021-02-09 21:00:00 15.1 15 Oeste 32 Noroeste 0 -- -- 89
2021-02-09 20:00:00 14.1 4 Noroeste 37 Oeste 0 -- -- 92
2021-02-09 19:00:00 14.7 14 Oeste 36 Sudoeste 0.6 -- -- 89
2021-02-09 18:00:00 15.5 15 Oeste 36 Oeste 0 -- -- 84
2021-02-09 17:00:00 16 14 Oeste 41 Oeste 0.4 -- -- 84
2021-02-09 16:00:00 17.1 14 Oeste 37 Oeste 0 -- -- 78
2021-02-09 15:00:00 17.3 17 Oeste 37 Oeste 0.2 -- -- 79
2021-02-09 14:00:00 15.7 17 Oeste 36 Oeste 0.2 -- -- 86
2021-02-09 13:00:00 15.9 12 Oeste 42 Oeste 0.2 -- -- 85
2021-02-09 12:00:00 16.9 18 Oeste 37 Oeste 0 -- -- 76
2021-02-09 11:00:00 15.9 10 Sudoeste 17 Sudoeste 0 -- -- 84
2021-02-09 10:00:00 13.2 5 Noroeste 12 Noroeste 0 -- -- 93
2021-02-09 09:00:00 11.8 8 Oeste 18 Oeste 0.2 -- -- 98
2021-02-09 08:00:00 11 2 Nordeste 6 Este 0 -- -- 98
2021-02-09 07:00:00 10.9 2 Noroeste 7 Oeste 0.2 -- -- 96
2021-02-09 06:00:00 11.2 3 Noroeste 9 Oeste 0 -- -- 91
2021-02-09 05:00:00 11.4 7 Oeste 17 Noroeste 0 -- -- 93
2021-02-09 04:00:00 9.8 5 Noroeste 13 Oeste 0 -- -- 96
2021-02-09 03:00:00 9.1 2 Norte 6 Nordeste 0 -- -- 94
2021-02-09 02:00:00 10 0 Calma 13 Noroeste 0 -- -- 91
2021-02-09 01:00:00 12.7 8 Oeste 18 Oeste 0 -- -- 86
2021-02-09 00:00:00 12.5 6 Oeste 15 Oeste 0 -- -- 84
2021-02-08 23:00:00 13.3 10 Oeste 23 Noroeste 0 -- -- 81
2021-02-08 22:00:00 14.3 12 Oeste 28 Oeste 0 -- -- 78
2021-02-08 21:00:00 14.4 12 Oeste 28 Oeste 0 -- -- 78
2021-02-08 20:00:00 14.3 13 Oeste 34 Oeste 0 -- -- 76
2021-02-08 19:00:00 14.4 17 Oeste 37 Noroeste 0 -- -- 75
2021-02-08 18:00:00 15 20 Oeste 42 Oeste 0 -- -- 70
2021-02-08 17:00:00 16.5 17 Oeste 48 Oeste 0 -- -- 64
2021-02-08 16:00:00 17 27 Noroeste 45 Noroeste 0 -- -- 59
2021-02-08 15:00:00 16.9 25 Oeste 48 Oeste 0 -- -- 58
2021-02-08 14:00:00 16.9 26 Oeste 57 Oeste 0 -- -- 63
2021-02-08 13:00:00 17 23 Noroeste 46 Noroeste 0 -- -- 66
2021-02-08 12:00:00 15.1 21 Noroeste 35 Noroeste 0 -- -- 76
2021-02-08 11:00:00 13.3 6 Noroeste 22 Noroeste 0 -- -- 89
2021-02-08 10:00:00 12.6 4 Norte 27 Noroeste 0.8 -- -- 92
2021-02-08 09:00:00 13.1 11 Noroeste 28 Noroeste 0.8 -- -- 92
2021-02-08 08:00:00 13.9 8 Oeste 52 Sudoeste 5.8 -- -- 95
2021-02-08 07:00:00 14.1 26 Sudoeste 46 Sudoeste 2 -- -- 92
2021-02-08 06:00:00 13.6 12 Sudoeste 23 Sudoeste 1 -- -- 93
2021-02-08 05:00:00 13.2 4 Sudoeste 31 Oeste 0.4 -- -- 92
2021-02-08 04:00:00 13.1 12 Sudoeste 26 Sudoeste 0.2 -- -- 91
2021-02-08 03:00:00 12.6 10 Oeste 32 Oeste 1.2 -- -- 96
2021-02-08 02:00:00 12 3 Sur 22 Sudoeste 1.8 -- -- 96
2021-02-08 01:00:00 12.1 11 Oeste 30 Oeste 0.2 -- -- 94
2021-02-08 00:00:00 11.5 3 Norte 15 Norte 0 -- -- 94
2021-02-07 23:00:00 11.4 4 Norte 16 Noroeste 0.2 -- -- 93
2021-02-07 22:00:00 11.7 3 Norte 22 Noroeste 0 -- -- 87
2021-02-07 21:00:00 11.8 11 Oeste 27 Noroeste 0 -- -- 84
2021-02-07 20:00:00 11.4 13 Noroeste 28 Noroeste 0 -- -- 82
2021-02-07 19:00:00 12.3 16 Noroeste 31 Noroeste 0 -- -- 74
2021-02-07 18:00:00 12.9 7 Noroeste 43 Noroeste 0 -- -- 69
2021-02-07 17:00:00 14.1 21 Noroeste 43 Norte 0 -- -- 63
2021-02-07 16:00:00 13.6 23 Noroeste 46 Oeste 0 -- -- 64
2021-02-07 15:00:00 13.1 24 Oeste 41 Oeste 0 -- -- 67
2021-02-07 14:00:00 14.2 22 Noroeste 40 Noroeste 0 -- -- 66
2021-02-07 13:00:00 15.1 21 Oeste 37 Oeste 0 -- -- 71
2021-02-07 12:00:00 14.9 12 Oeste 27 Oeste 0 -- -- 77
2021-02-07 11:00:00 13.7 10 Oeste 18 Oeste 0 -- -- 82
2021-02-07 10:00:00 11.6 7 Oeste 21 Noroeste 0 -- -- 88
2021-02-07 09:00:00 10.5 11 Noroeste 23 Noroeste 0 -- -- 92
2021-02-07 08:00:00 10.1 12 Noroeste 23 Noroeste 0 -- -- 96
2021-02-07 07:00:00 8.6 3 Norte 9 Oeste 0 -- -- 98
2021-02-07 06:00:00 9 3 Sudeste 7 Sudoeste 0 -- -- 99
2021-02-07 05:00:00 9.6 0 Calma 4 Nordeste 0 -- -- 99
2021-02-07 04:00:00 9.7 0 Calma 4 Este 0.2 -- -- 98
2021-02-07 03:00:00 9.7 0 Calma 9 Oeste 0 -- -- 97
2021-02-07 02:00:00 9.6 3 Sudoeste 12 Oeste 0.2 -- -- 98
2021-02-07 01:00:00 8.4 4 Oeste 12 Oeste 0 -- -- 98
2021-02-07 00:00:00 8.1 0 Calma 7 Norte 0 -- -- 97
2021-02-06 23:00:00 8.6 0 Calma 12 Oeste 0 -- -- 94
2021-02-06 22:00:00 10.3 2 Noroeste 14 Oeste 0 -- -- 92
2021-02-06 21:00:00 11.4 7 Oeste 21 Oeste 0.2 -- -- 90
2021-02-06 20:00:00 12.1 8 Oeste 15 Oeste 0 -- -- 87
2021-02-06 19:00:00 12.6 10 Oeste 21 Oeste 0 -- -- 85
2021-02-06 18:00:00 13.7 14 Oeste 25 Oeste 0.2 -- -- 81
2021-02-06 17:00:00 13.3 13 Oeste 32 Sudoeste 0 -- -- 83
2021-02-06 16:00:00 14.3 16 Oeste 27 Sudoeste 0.8 -- -- 84
2021-02-06 15:00:00 13.7 4 Noroeste 22 Sudoeste 0.2 -- -- 87
2021-02-06 14:00:00 14.2 8 Oeste 31 Oeste 0.2 -- -- 83
2021-02-06 13:00:00 14.2 6 Noroeste 28 Sudoeste 0.2 -- -- 87
2021-02-06 12:00:00 13.3 6 Oeste 25 Noroeste 0.6 -- -- 90
2021-02-06 11:00:00 12.4 0 Calma 10 Oeste 0 -- -- 99
2021-02-06 10:00:00 9.1 0 Calma 6 Este 0 -- -- 100
2021-02-06 09:00:00 8 4 Norte 9 Norte 0 -- -- 99
2021-02-06 08:00:00 8 2 Nordeste 8 Nordeste 0 -- -- 98
2021-02-06 07:00:00 8.6 5 Este 9 Nordeste 0 -- -- 97
2021-02-06 06:00:00 10.1 3 Este 14 Oeste 0 -- -- 95
2021-02-06 05:00:00 11.1 3 Norte 6 Sudoeste 0 -- -- 98
2021-02-06 04:00:00 11.6 2 Sudoeste 8 Sur 0 -- -- 97
2021-02-06 03:00:00 11.7 3 Sudeste 13 Sudeste 1.6 -- -- 97
2021-02-06 02:00:00 11.7 5 Sudeste 18 Sudeste 0.8 -- -- 97
2021-02-06 01:00:00 11.7 9 Sudeste 19 Sudeste 2.2 -- -- 96
2021-02-06 00:00:00 11.7 9 Sudeste 15 Sudeste 2.2 -- -- 95
2021-02-05 23:00:00 12.2 5 Este 22 Sur 0.6 -- -- 88
2021-02-05 22:00:00 13.4 10 Sudeste 18 Este 0 -- -- 78
2021-02-05 21:00:00 12.9 6 Sudeste 12 Este 0 -- -- 82
2021-02-05 20:00:00 13.1 9 Este 14 Sudeste 0 -- -- 79
2021-02-05 19:00:00 14 8 Sudeste 21 Sudoeste 0 -- -- 74
2021-02-05 18:00:00 14.9 9 Sudoeste 23 Sudoeste 0 -- -- 72
2021-02-05 17:00:00 15.3 0 Calma 8 Oeste 0 -- -- 76
2021-02-05 16:00:00 15.3 3 Sur 18 Oeste 0 -- -- 79
2021-02-05 15:00:00 16.2 7 Sudoeste 13 Sudoeste 0 -- -- 78
2021-02-05 14:00:00 16.5 3 Oeste 10 Oeste 0 -- -- 85
2021-02-05 13:00:00 16.2 10 Oeste 16 Oeste 0 -- -- 84
2021-02-05 12:00:00 16.4 3 Sudoeste 9 Oeste 0 -- -- 84
2021-02-05 11:00:00 14.1 6 Oeste 19 Norte 0 -- -- 100
2021-02-05 10:00:00 10.7 3 Nordeste 5 Norte 0 -- -- 100
2021-02-05 09:00:00 10 0 Calma 3 Noroeste 0 -- -- 100
2021-02-05 08:00:00 9.5 0 Calma 12 Norte 0 -- -- 100
2021-02-05 07:00:00 8.3 2 Nordeste 5 Este 0 -- -- 100
2021-02-05 06:00:00 7.9 0 Calma 8 Este 0 -- -- 98
2021-02-05 05:00:00 8.4 2 Nordeste 10 Norte 0 -- -- 98
2021-02-05 04:00:00 8.7 4 Nordeste 8 Este 0 -- -- 97
2021-02-05 03:00:00 9.8 3 Norte 9 Nordeste 0 -- -- 97
2021-02-05 02:00:00 11.1 3 Sur 10 Este 0 -- -- 95
2021-02-05 01:00:00 11.6 2 Sudoeste 9 Oeste 0 -- -- 95
2021-02-05 00:00:00 12 5 Este 10 Este 0 -- -- 95
2021-02-04 23:00:00 12.2 3 Oeste 7 Este 0 -- -- 93
2021-02-04 22:00:00 12.1 4 Nordeste 7 Este 0 -- -- 92
2021-02-04 21:00:00 13.2 2 Este 6 Nordeste 0 -- -- 88
2021-02-04 20:00:00 14.6 4 Oeste 10 Sudeste 0 -- -- 84
2021-02-04 19:00:00 15.6 4 Este 6 Este 0 -- -- 83
2021-02-04 18:00:00 17.7 2 Norte 8 Noroeste 0 -- -- 76
2021-02-04 17:00:00 18.5 3 Oeste 10 Sudoeste 0 -- -- 77
2021-02-04 16:00:00 17.8 8 Sudoeste 16 Oeste 0 -- -- 76
2021-02-04 15:00:00 17.7 9 Sudoeste 15 Oeste 0 -- -- 77
2021-02-04 14:00:00 17.6 7 Sur 18 Sur 0 -- -- 77
2021-02-04 13:00:00 15.5 4 Sudoeste 9 Oeste 0 -- -- 89
2021-02-04 12:00:00 12.8 0 Calma 4 Sudoeste 0 -- -- 91
2021-02-04 11:00:00 10.9 0 Calma 4 Noroeste 0 -- -- 97
2021-02-04 10:00:00 8.9 3 Norte 5 Noroeste 0 -- -- 99
2021-02-04 09:00:00 7.3 0 Calma 5 Nordeste 0 -- -- 97
2021-02-04 08:00:00 7.3 4 Este 6 Este 0 -- -- 97
2021-02-04 07:00:00 7.7 2 Nordeste 6 Este 0 -- -- 96
2021-02-04 06:00:00 8.7 2 Sudeste 6 Este 0 -- -- 94
2021-02-04 05:00:00 9.4 3 Noroeste 9 Nordeste 0 -- -- 93
2021-02-04 04:00:00 10.4 3 Norte 9 Norte 0 -- -- 95
2021-02-04 03:00:00 10.4 3 Este 9 Nordeste 0 -- -- 95
2021-02-04 02:00:00 9.9 5 Nordeste 9 Nordeste 0 -- -- 96
2021-02-04 01:00:00 10.1 4 Nordeste 9 Este 0 -- -- 94
2021-02-04 00:00:00 11.4 3 Nordeste 9 Norte 0 -- -- 90
2021-02-03 23:00:00 12.9 2 Noroeste 12 Oeste 0 -- -- 86
2021-02-03 22:00:00 13.6 7 Oeste 12 Oeste 0 -- -- 85
2021-02-03 21:00:00 14.3 8 Oeste 19 Oeste 0 -- -- 84
2021-02-03 20:00:00 14.9 12 Oeste 22 Oeste 0 -- -- 83
2021-02-03 19:00:00 15.9 10 Oeste 24 Oeste 0 -- -- 78
2021-02-03 18:00:00 18.4 10 Oeste 19 Oeste 0 -- -- 69
2021-02-03 17:00:00 18.3 10 Oeste 20 Oeste 0 -- -- 69
2021-02-03 16:00:00 19 11 Oeste 21 Oeste 0 -- -- 66
2021-02-03 15:00:00 20.2 15 Oeste 26 Noroeste 0 -- -- 61
2021-02-03 14:00:00 19.9 15 Noroeste 23 Oeste 0 -- -- 61
2021-02-03 13:00:00 18.3 10 Oeste 18 Oeste 0 -- -- 71
2021-02-03 12:00:00 17.2 5 Oeste 9 Oeste 0 -- -- 73
2021-02-03 11:00:00 14.2 3 Noroeste 7 Oeste 0 -- -- 86
2021-02-03 10:00:00 11.4 4 Oeste 9 Sudoeste 0 -- -- 95
2021-02-03 09:00:00 8.3 2 Norte 7 Norte 0 -- -- 95
2021-02-03 08:00:00 9.2 4 Norte 14 Noroeste 0 -- -- 92
2021-02-03 07:00:00 9.5 7 Oeste 16 Oeste 0 -- -- 97
2021-02-03 06:00:00 9.7 0 Calma 9 Noroeste 0 -- -- 93
2021-02-03 05:00:00 9 3 Sur 9 Sudoeste 0 -- -- 95
2021-02-03 04:00:00 9 0 Calma 9 Noroeste 0 -- -- 93
2021-02-03 03:00:00 9.9 2 Oeste 9 Oeste 0 -- -- 93
2021-02-03 02:00:00 10.9 4 Oeste 14 Oeste 0 -- -- 91
2021-02-03 01:00:00 10.8 3 Sudoeste 9 Noroeste 0 -- -- 92
2021-02-03 00:00:00 11.3 4 Noroeste 14 Noroeste 0 -- -- 93
2021-02-02 23:00:00 9.8 0 Calma 9 Nordeste 0 -- -- 94
2021-02-02 22:00:00 11.3 4 Nordeste 9 Noroeste 0 -- -- 89
2021-02-02 21:00:00 13.5 4 Sudeste 15 Oeste 0 -- -- 85
2021-02-02 20:00:00 15.1 6 Noroeste 21 Oeste 0 -- -- 80
2021-02-02 19:00:00 16.3 11 Noroeste 19 Noroeste 0 -- -- 76
2021-02-02 18:00:00 19.2 15 Noroeste 24 Noroeste 0 -- -- 67
2021-02-02 17:00:00 20.7 12 Oeste 28 Oeste 0 -- -- 62
2021-02-02 16:00:00 21.1 17 Oeste 28 Oeste 0 -- -- 60
2021-02-02 15:00:00 21.1 19 Oeste 30 Oeste 0 -- -- 58
2021-02-02 14:00:00 21 15 Oeste 27 Oeste 0 -- -- 60
2021-02-02 13:00:00 20.3 14 Oeste 26 Noroeste 0 -- -- 64
2021-02-02 12:00:00 19 9 Oeste 20 Oeste 0 -- -- 66
2021-02-02 11:00:00 17.2 8 Oeste 18 Oeste 0 -- -- 73
2021-02-02 10:00:00 14.9 5 Oeste 14 Oeste 0 -- -- 78
2021-02-02 09:00:00 12.1 4 Noroeste 17 Norte 0 -- -- 85
2021-02-02 08:00:00 11.8 5 Norte 21 Norte 0 -- -- 85
2021-02-02 07:00:00 13 10 Norte 27 Norte 0 -- -- 82
2021-02-02 06:00:00 13.1 11 Noroeste 19 Noroeste 0 -- -- 82
2021-02-02 05:00:00 12.1 8 Noroeste 16 Noroeste 0 -- -- 89
2021-02-02 04:00:00 12.5 8 Noroeste 21 Norte 0 -- -- 87
2021-02-02 03:00:00 12.5 6 Noroeste 18 Noroeste 0 -- -- 87
2021-02-02 02:00:00 12.7 5 Noroeste 20 Oeste 0 -- -- 88
2021-02-02 01:00:00 11.9 9 Noroeste 17 Noroeste 0 -- -- 90
2021-02-02 00:00:00 10.8 3 Nordeste 10 Norte 0 -- -- 90
2021-02-01 23:00:00 12.7 6 Oeste 16 Oeste 0 -- -- 85
2021-02-01 22:00:00 13.5 4 Noroeste 18 Noroeste 0 -- -- 82
2021-02-01 21:00:00 12.2 3 Noroeste 7 Norte 0 -- -- 88
2021-02-01 20:00:00 13.2 3 Noroeste 15 Oeste 0 -- -- 83
2021-02-01 19:00:00 14.4 10 Noroeste 23 Noroeste 0 -- -- 79
2021-02-01 18:00:00 17 15 Noroeste 30 Oeste 0 -- -- 72
2021-02-01 17:00:00 18.2 21 Oeste 35 Oeste 0 -- -- 70
2021-02-01 16:00:00 18.8 17 Oeste 36 Oeste 0 -- -- 71
2021-02-01 15:00:00 18.7 20 Oeste 42 Noroeste 0 -- -- 70
2021-02-01 14:00:00 18.9 23 Oeste 42 Oeste 0 -- -- 68
2021-02-01 13:00:00 18.2 23 Oeste 42 Oeste 0 -- -- 75
2021-02-01 12:00:00 17.1 15 Noroeste 38 Noroeste 0 -- -- 83
2021-02-01 11:00:00 16.8 23 Noroeste 39 Noroeste 0 -- -- 83
2021-02-01 10:00:00 16.1 18 Noroeste 28 Noroeste 0 -- -- 87
2021-02-01 09:00:00 15.1 15 Oeste 26 Oeste 0 -- -- 92
2021-02-01 08:00:00 14.8 11 Noroeste 17 Noroeste 0 -- -- 93
2021-02-01 07:00:00 15.3 9 Noroeste 26 Noroeste 0 -- -- 92
2021-02-01 06:00:00 15.3 6 Noroeste 18 Noroeste 0 -- -- 93
2021-02-01 05:00:00 15.3 0 Calma 9 Sur 0 -- -- 96
2021-02-01 04:00:00 15.1 2 Sudoeste 9 Sur 0.2 -- -- 97
2021-02-01 03:00:00 14.9 2 Noroeste 12 Oeste 0.2 -- -- 96
2021-02-01 02:00:00 14.9 2 Sudeste 11 Sur 0 -- -- 94
2021-02-01 01:00:00 15 8 Oeste 21 Oeste 0.2 -- -- 93
2021-02-01 00:00:00 14.6 5 Sur 13 Sudeste 0.6 -- -- 95
2021-01-31 23:00:00 14.3 4 Sur 10 Sur 0 -- -- 95
2021-01-31 22:00:00 14.9 3 Noroeste 30 Oeste 0 -- -- 88
2021-01-31 21:00:00 15.5 12 Oeste 29 Oeste 0 -- -- 76
2021-01-31 20:00:00 15.4 12 Oeste 30 Sudoeste 0 -- -- 76
2021-01-31 19:00:00 15.6 13 Oeste 29 Oeste 0 -- -- 76
2021-01-31 18:00:00 16.5 14 Noroeste 36 Oeste 0 -- -- 73
2021-01-31 17:00:00 17.1 13 Oeste 35 Oeste 0 -- -- 72
2021-01-31 16:00:00 17.4 18 Oeste 35 Noroeste 0 -- -- 68
2021-01-31 15:00:00 17.3 18 Oeste 33 Oeste 0 -- -- 71
2021-01-31 14:00:00 17 16 Noroeste 34 Oeste 0 -- -- 72
2021-01-31 13:00:00 16.9 14 Noroeste 31 Noroeste 0 -- -- 72
2021-01-31 12:00:00 17.6 11 Noroeste 27 Noroeste 0 -- -- 71
2021-01-31 11:00:00 15.8 14 Noroeste 26 Noroeste 0 -- -- 76
2021-01-31 10:00:00 14.1 11 Noroeste 23 Oeste 0 -- -- 80
2021-01-31 09:00:00 13.3 16 Noroeste 27 Noroeste 0 -- -- 80
2021-01-31 08:00:00 13 14 Noroeste 26 Noroeste 0 -- -- 78
2021-01-31 07:00:00 12.9 6 Noroeste 22 Oeste 0 -- -- 79
2021-01-31 06:00:00 12.9 11 Noroeste 42 Noroeste 0 -- -- 78
2021-01-31 05:00:00 13.1 16 Noroeste 40 Noroeste 0 -- -- 75
2021-01-31 04:00:00 13.3 23 Noroeste 39 Noroeste 0 -- -- 76
2021-01-31 03:00:00 13.2 18 Noroeste 30 Noroeste 0 -- -- 75
2021-01-31 02:00:00 12.5 7 Noroeste 15 Noroeste 0 -- -- 80
2021-01-31 01:00:00 12.1 3 Noroeste 25 Oeste 0 -- -- 78
2021-01-31 00:00:00 13.2 13 Noroeste 32 Noroeste 0 -- -- 74